createdAt,value
2018-05-24T00:00:10.717Z,15.06
2018-05-24T00:01:10.661Z,15.12
2018-05-24T00:02:10.607Z,15.02
2018-05-24T00:03:10.551Z,15.08
2018-05-24T00:04:10.497Z,15.09
2018-05-24T00:05:10.442Z,15.02
2018-05-24T00:06:10.390Z,14.95
2018-05-24T00:07:10.333Z,14.94
2018-05-24T00:08:10.279Z,14.91
2018-05-24T00:09:10.224Z,14.87
2018-05-24T00:10:10.170Z,14.86
2018-05-24T00:11:10.114Z,14.81
2018-05-24T00:12:10.060Z,14.86
2018-05-24T00:13:10.005Z,14.88
2018-05-24T00:14:09.950Z,14.90
2018-05-24T00:15:09.896Z,14.84
2018-05-24T00:16:09.842Z,14.88
2018-05-24T00:17:09.786Z,14.87
2018-05-24T00:18:09.731Z,14.80
2018-05-24T00:19:09.678Z,14.86
2018-05-24T00:20:09.622Z,14.90
2018-05-24T00:21:09.568Z,14.86
2018-05-24T00:22:09.512Z,14.86
2018-05-24T00:23:09.459Z,14.83
2018-05-24T00:24:09.412Z,14.75
2018-05-24T00:25:09.353Z,14.81
2018-05-24T00:26:09.293Z,14.83
2018-05-24T00:27:09.238Z,14.88
2018-05-24T00:28:09.186Z,14.91
2018-05-24T00:29:09.147Z,14.88
2018-05-24T00:30:09.074Z,14.84
2018-05-24T00:31:09.021Z,14.80
2018-05-24T00:32:08.965Z,14.95
2018-05-24T00:33:08.910Z,14.91
2018-05-24T00:34:08.855Z,14.86
2018-05-24T00:35:08.800Z,14.86
2018-05-24T00:36:08.748Z,14.84
2018-05-24T00:37:08.691Z,14.64
2018-05-24T00:38:08.647Z,14.62
2018-05-24T00:39:08.582Z,14.60
2018-05-24T00:40:08.530Z,14.53
2018-05-24T00:41:08.470Z,14.60
2018-05-24T00:42:08.423Z,14.57
2018-05-24T00:43:08.362Z,14.60
2018-05-24T00:44:08.308Z,14.56
2018-05-24T00:45:08.256Z,14.61
2018-05-24T00:46:08.200Z,14.64
2018-05-24T00:47:08.142Z,14.64
2018-05-24T00:48:08.088Z,14.62
2018-05-24T00:49:08.031Z,14.67
2018-05-24T00:50:07.977Z,14.68
2018-05-24T00:51:07.923Z,14.71
2018-05-24T00:52:07.867Z,14.72
2018-05-24T00:53:07.819Z,14.65
2018-05-24T00:54:07.758Z,14.71
2018-05-24T00:55:07.702Z,14.68
2018-05-24T00:56:07.649Z,14.65
2018-05-24T00:57:07.597Z,14.56
2018-05-24T00:58:07.539Z,14.60
2018-05-24T00:59:07.482Z,14.57
2018-05-24T01:00:07.430Z,14.57
2018-05-24T01:01:07.371Z,14.54
2018-05-24T01:02:07.320Z,14.71
2018-05-24T01:03:07.263Z,14.71
2018-05-24T01:04:07.206Z,14.64
2018-05-24T01:05:07.152Z,14.65
2018-05-24T01:06:07.098Z,14.65
2018-05-24T01:07:07.044Z,14.78
2018-05-24T01:08:06.991Z,14.86
2018-05-24T01:09:06.931Z,14.80
2018-05-24T01:10:06.878Z,14.80
2018-05-24T01:11:06.823Z,14.88
2018-05-24T01:12:06.772Z,14.87
2018-05-24T01:13:06.711Z,14.86
2018-05-24T01:14:06.660Z,14.83
2018-05-24T01:15:06.604Z,14.86
2018-05-24T01:16:06.548Z,14.90
2018-05-24T01:17:06.496Z,14.93
2018-05-24T01:18:06.448Z,14.86
2018-05-24T01:19:06.388Z,14.91
2018-05-24T01:20:06.330Z,14.93
2018-05-24T01:21:06.277Z,14.91
2018-05-24T01:22:06.218Z,14.84
2018-05-24T01:23:06.165Z,14.91
2018-05-24T01:24:06.111Z,14.87
2018-05-24T01:25:06.054Z,14.88
2018-05-24T01:26:05.998Z,14.93
2018-05-24T01:27:05.944Z,14.94
2018-05-24T01:28:05.894Z,14.94
2018-05-24T01:29:05.834Z,14.86
2018-05-24T01:30:05.779Z,14.83
2018-05-24T01:31:05.725Z,14.69
2018-05-24T01:32:05.670Z,14.71
2018-05-24T01:33:05.614Z,14.69
2018-05-24T01:34:05.558Z,14.67
2018-05-24T01:35:05.503Z,14.54
2018-05-24T01:36:05.448Z,14.52
2018-05-24T01:37:05.392Z,14.57
2018-05-24T01:38:05.336Z,14.53
2018-05-24T01:39:05.285Z,14.56
2018-05-24T01:40:05.232Z,14.52
2018-05-24T01:41:05.173Z,14.56
2018-05-24T01:42:05.119Z,14.62
2018-05-24T01:43:05.064Z,14.52
2018-05-24T01:44:05.009Z,14.67
2018-05-24T01:45:04.952Z,14.65
2018-05-24T01:46:04.902Z,14.68
2018-05-24T01:47:04.843Z,14.72
2018-05-24T01:48:04.788Z,14.83
2018-05-24T01:49:04.733Z,14.83
2018-05-24T01:50:04.680Z,14.86
2018-05-24T01:51:04.622Z,14.88
2018-05-24T01:52:04.568Z,14.87
2018-05-24T01:53:04.520Z,14.86
2018-05-24T01:54:04.462Z,14.90
2018-05-24T01:55:04.404Z,14.91
2018-05-24T01:56:04.350Z,14.81
2018-05-24T01:57:04.300Z,14.86
2018-05-24T01:58:04.237Z,14.75
2018-05-24T01:59:04.181Z,14.80
2018-05-24T02:00:04.130Z,14.75
2018-05-24T02:01:04.073Z,14.83
2018-05-24T02:02:04.019Z,14.87
2018-05-24T02:03:03.961Z,14.75
2018-05-24T02:04:03.907Z,14.88
2018-05-24T02:05:03.852Z,14.87
2018-05-24T02:06:03.796Z,14.86
2018-05-24T02:07:03.741Z,14.75
2018-05-24T02:08:03.686Z,14.86
2018-05-24T02:09:03.631Z,14.88
2018-05-24T02:10:03.576Z,14.90
2018-05-24T02:11:03.522Z,14.86
2018-05-24T02:12:03.468Z,14.83
2018-05-24T02:13:03.413Z,14.80
2018-05-24T02:14:03.356Z,14.83
2018-05-24T02:15:03.301Z,14.84
2018-05-24T02:16:03.247Z,14.80
2018-05-24T02:17:03.191Z,14.86
2018-05-24T02:18:03.135Z,14.84
2018-05-24T02:19:03.081Z,14.86
2018-05-24T02:20:03.028Z,14.91
2018-05-24T02:21:02.975Z,14.90
2018-05-24T02:22:02.916Z,14.88
2018-05-24T02:23:02.864Z,14.91
2018-05-24T02:24:02.807Z,14.90
2018-05-24T02:25:02.755Z,14.91
2018-05-24T02:26:02.697Z,14.93
2018-05-24T02:27:02.647Z,14.90
2018-05-24T02:28:02.587Z,14.86
2018-05-24T02:29:02.538Z,14.88
2018-05-24T02:30:02.480Z,14.91
2018-05-24T02:31:02.426Z,14.93
2018-05-24T02:32:02.368Z,14.91
2018-05-24T02:33:02.314Z,14.93
2018-05-24T02:34:02.258Z,14.95
2018-05-24T02:35:02.214Z,14.88
2018-05-24T02:36:02.200Z,14.95
2018-05-24T02:37:02.093Z,14.95
2018-05-24T02:38:02.047Z,15.01
2018-05-24T02:39:01.983Z,14.95
2018-05-24T02:40:01.935Z,14.94
2018-05-24T02:41:01.879Z,15.05
2018-05-24T02:42:01.824Z,14.95
2018-05-24T02:43:01.765Z,14.95
2018-05-24T02:44:01.711Z,15.01
2018-05-24T02:45:01.654Z,15.01
2018-05-24T02:46:01.600Z,15.05
2018-05-24T02:47:01.547Z,15.02
2018-05-24T02:48:01.491Z,15.11
2018-05-24T02:49:01.442Z,14.91
2018-05-24T02:50:01.379Z,14.99
2018-05-24T02:51:01.330Z,14.99
2018-05-24T02:52:01.271Z,15.02
2018-05-24T02:53:01.216Z,14.95
2018-05-24T02:54:01.160Z,14.87
2018-05-24T02:55:01.105Z,14.90
2018-05-24T02:56:01.053Z,14.75
2018-05-24T02:57:00.996Z,14.86
2018-05-24T02:58:00.974Z,14.84
2018-05-24T02:59:00.897Z,14.90
2018-05-24T03:00:00.831Z,14.83
2018-05-24T03:01:00.775Z,14.71
2018-05-24T03:02:00.721Z,14.75
2018-05-24T03:03:00.665Z,14.81
2018-05-24T03:04:00.616Z,14.78
2018-05-24T03:05:00.558Z,14.75
2018-05-24T03:06:00.499Z,14.75
2018-05-24T03:07:00.448Z,14.69
2018-05-24T03:08:00.402Z,14.78
2018-05-24T03:09:00.340Z,14.86
2018-05-24T03:10:00.279Z,14.87
2018-05-24T03:11:00.231Z,14.90
2018-05-24T03:12:00.173Z,14.86
2018-05-24T03:13:00.115Z,14.91
2018-05-24T03:14:00.068Z,14.93
2018-05-24T03:15:00.004Z,14.88
2018-05-24T03:15:59.951Z,14.93
2018-05-24T03:16:59.892Z,15.03
2018-05-24T03:17:59.838Z,15.02
2018-05-24T03:18:59.783Z,14.99
2018-05-24T03:19:59.728Z,15.06
2018-05-24T03:20:59.671Z,14.98
2018-05-24T03:21:59.618Z,14.94
2018-05-24T03:22:59.562Z,14.95
2018-05-24T03:23:59.509Z,14.94
2018-05-24T03:24:59.454Z,14.91
2018-05-24T03:25:59.402Z,14.88
2018-05-24T03:26:59.341Z,14.93
2018-05-24T03:27:59.286Z,14.83
2018-05-24T03:28:59.233Z,14.91
2018-05-24T03:29:59.174Z,14.93
2018-05-24T03:30:59.123Z,14.91
2018-05-24T03:31:59.064Z,14.88
2018-05-24T03:32:59.007Z,14.93
2018-05-24T03:33:58.954Z,14.99
2018-05-24T03:34:58.898Z,14.98
2018-05-24T03:35:58.847Z,15.01
2018-05-24T03:36:58.788Z,15.02
2018-05-24T03:37:58.733Z,14.94
2018-05-24T03:38:58.676Z,14.93
2018-05-24T03:39:58.620Z,14.98
2018-05-24T03:40:58.565Z,14.91
2018-05-24T03:41:58.509Z,14.94
2018-05-24T03:42:58.455Z,14.93
2018-05-24T03:43:58.405Z,14.99
2018-05-24T03:44:58.345Z,14.83
2018-05-24T03:45:58.289Z,14.98
2018-05-24T03:46:58.239Z,15.01
2018-05-24T03:47:58.180Z,14.95
2018-05-24T03:48:58.124Z,14.98
2018-05-24T03:49:58.072Z,14.99
2018-05-24T03:50:58.015Z,15.02
2018-05-24T03:51:57.960Z,15.05
2018-05-24T03:52:57.907Z,15.05
2018-05-24T03:53:57.850Z,15.11
2018-05-24T03:54:57.794Z,15.03
2018-05-24T03:55:57.741Z,15.11
2018-05-24T03:56:57.686Z,14.99
2018-05-24T03:57:57.631Z,15.09
2018-05-24T03:58:57.582Z,14.98
2018-05-24T03:59:57.521Z,14.98
2018-05-24T04:00:57.467Z,14.98
2018-05-24T04:01:57.412Z,14.98
2018-05-24T04:02:57.357Z,14.95
2018-05-24T04:03:57.303Z,14.91
2018-05-24T04:04:57.247Z,15.05
2018-05-24T04:05:57.193Z,14.98
2018-05-24T04:06:57.137Z,15.06
2018-05-24T04:07:57.085Z,15.06
2018-05-24T04:08:57.027Z,14.95
2018-05-24T04:09:56.973Z,15.11
2018-05-24T04:10:56.921Z,15.09
2018-05-24T04:11:56.953Z,15.05
2018-05-24T04:12:56.815Z,15.11
2018-05-24T04:13:56.754Z,15.06
2018-05-24T04:14:56.697Z,15.11
2018-05-24T04:15:56.648Z,15.03
2018-05-24T04:16:56.589Z,15.12
2018-05-24T04:17:56.541Z,15.01
2018-05-24T04:18:56.480Z,15.08
2018-05-24T04:19:56.429Z,15.20
2018-05-24T04:20:56.370Z,15.13
2018-05-24T04:21:56.316Z,15.12
2018-05-24T04:22:56.262Z,15.17
2018-05-24T04:23:56.208Z,15.23
2018-05-24T04:24:56.151Z,15.20
2018-05-24T04:25:56.165Z,15.20
2018-05-24T04:26:56.115Z,15.28
2018-05-24T04:27:55.988Z,15.28
2018-05-24T04:28:55.934Z,15.27
2018-05-24T04:29:55.878Z,15.30
2018-05-24T04:30:55.825Z,15.28
2018-05-24T04:31:55.769Z,15.31
2018-05-24T04:32:55.724Z,15.24
2018-05-24T04:33:55.660Z,15.24
2018-05-24T04:34:55.607Z,15.26
2018-05-24T04:35:55.552Z,15.35
2018-05-24T04:36:55.500Z,15.35
2018-05-24T04:37:55.446Z,15.38
2018-05-24T04:38:55.388Z,15.36
2018-05-24T04:39:55.334Z,15.42
2018-05-24T04:40:55.287Z,15.43
2018-05-24T04:41:55.226Z,15.42
2018-05-24T04:42:55.172Z,15.54
2018-05-24T04:43:55.115Z,15.48
2018-05-24T04:44:55.061Z,15.51
2018-05-24T04:45:55.006Z,15.43
2018-05-24T04:46:54.952Z,15.63
2018-05-24T04:47:54.899Z,15.52
2018-05-24T04:48:54.846Z,15.64
2018-05-24T04:49:54.788Z,15.59
2018-05-24T04:50:54.733Z,15.66
2018-05-24T04:51:54.679Z,15.70
2018-05-24T04:52:54.625Z,15.78
2018-05-24T04:53:54.570Z,15.75
2018-05-24T04:54:54.514Z,15.75
2018-05-24T04:55:54.466Z,15.76
2018-05-24T04:56:54.404Z,15.78
2018-05-24T04:57:54.352Z,15.72
2018-05-24T04:58:54.298Z,15.66
2018-05-24T04:59:54.244Z,15.78
2018-05-24T05:00:54.186Z,15.85
2018-05-24T05:01:54.134Z,15.93
2018-05-24T05:02:54.078Z,15.86
2018-05-24T05:03:54.024Z,15.86
2018-05-24T05:04:53.969Z,15.86
2018-05-24T05:05:53.915Z,15.86
2018-05-24T05:06:53.860Z,15.85
2018-05-24T05:07:53.806Z,15.88
2018-05-24T05:08:53.750Z,15.93
2018-05-24T05:09:53.696Z,15.82
2018-05-24T05:10:53.644Z,15.88
2018-05-24T05:11:53.590Z,15.85
2018-05-24T05:12:53.531Z,15.92
2018-05-24T05:13:53.479Z,15.89
2018-05-24T05:14:53.424Z,15.89
2018-05-24T05:15:53.370Z,15.97
2018-05-24T05:16:53.315Z,15.94
2018-05-24T05:17:53.258Z,15.99
2018-05-24T05:18:53.215Z,15.93
2018-05-24T05:19:53.151Z,15.96
2018-05-24T05:20:53.096Z,16.00
2018-05-24T05:21:53.041Z,16.00
2018-05-24T05:22:52.989Z,16.01
2018-05-24T05:23:52.933Z,15.85
2018-05-24T05:24:52.879Z,15.88
2018-05-24T05:25:52.829Z,15.88
2018-05-24T05:26:52.773Z,15.88
2018-05-24T05:27:52.716Z,15.86
2018-05-24T05:28:52.661Z,15.96
2018-05-24T05:29:52.606Z,15.97
2018-05-24T05:30:52.554Z,15.94
2018-05-24T05:31:52.498Z,15.97
2018-05-24T05:32:52.481Z,16.01
2018-05-24T05:33:52.393Z,16.06
2018-05-24T05:34:52.336Z,16.07
2018-05-24T05:35:52.284Z,16.00
2018-05-24T05:36:52.234Z,16.07
2018-05-24T05:37:52.173Z,16.07
2018-05-24T05:38:52.118Z,16.01
2018-05-24T05:39:52.083Z,16.14
2018-05-24T05:40:52.009Z,16.07
2018-05-24T05:41:51.955Z,16.12
2018-05-24T05:42:51.905Z,16.15
2018-05-24T05:43:51.849Z,16.14
2018-05-24T05:44:51.848Z,16.18
2018-05-24T05:45:51.742Z,16.18
2018-05-24T05:46:51.685Z,16.26
2018-05-24T05:47:51.631Z,16.23
2018-05-24T05:48:51.580Z,16.12
2018-05-24T05:49:51.522Z,16.16
2018-05-24T05:50:51.472Z,16.31
2018-05-24T05:51:51.414Z,16.20
2018-05-24T05:52:51.358Z,16.27
2018-05-24T05:53:51.306Z,16.22
2018-05-24T05:54:51.261Z,16.34
2018-05-24T05:55:51.200Z,16.30
2018-05-24T05:56:51.144Z,16.31
2018-05-24T05:57:51.091Z,16.33
2018-05-24T05:58:51.038Z,16.26
2018-05-24T05:59:50.983Z,16.34
2018-05-24T06:00:50.930Z,16.34
2018-05-24T06:01:50.927Z,16.38
2018-05-24T06:02:50.824Z,16.33
2018-05-24T06:03:50.767Z,16.35
2018-05-24T06:04:50.720Z,16.34
2018-05-24T06:05:50.658Z,16.27
2018-05-24T06:06:50.605Z,16.44
2018-05-24T06:07:50.554Z,16.34
2018-05-24T06:08:50.498Z,16.48
2018-05-24T06:09:50.452Z,16.41
2018-05-24T06:10:50.389Z,16.50
2018-05-24T06:11:50.336Z,16.45
2018-05-24T06:12:50.284Z,16.44
2018-05-24T06:13:50.290Z,16.48
2018-05-24T06:14:50.174Z,16.40
2018-05-24T06:15:50.120Z,16.48
2018-05-24T06:16:50.065Z,16.50
2018-05-24T06:17:50.014Z,16.48
2018-05-24T06:18:49.958Z,16.58
2018-05-24T06:19:49.904Z,16.53
2018-05-24T06:20:49.848Z,16.62
2018-05-24T06:21:49.795Z,16.56
2018-05-24T06:22:49.741Z,16.56
2018-05-24T06:23:49.688Z,16.56
2018-05-24T06:24:49.644Z,16.59
2018-05-24T06:25:49.579Z,16.55
2018-05-24T06:26:49.525Z,16.55
2018-05-24T06:27:49.475Z,16.56
2018-05-24T06:28:49.417Z,16.70
2018-05-24T06:29:49.363Z,16.70
2018-05-24T06:30:49.312Z,16.56
2018-05-24T06:31:49.257Z,16.73
2018-05-24T06:32:49.208Z,16.71
2018-05-24T06:33:49.153Z,16.70
2018-05-24T06:34:49.095Z,16.60
2018-05-24T06:35:49.042Z,16.71
2018-05-24T06:36:48.989Z,16.74
2018-05-24T06:37:48.936Z,16.75
2018-05-24T06:38:48.880Z,16.60
2018-05-24T06:39:48.828Z,16.70
2018-05-24T06:40:48.773Z,16.65
2018-05-24T06:41:48.720Z,16.77
2018-05-24T06:42:48.670Z,16.80
2018-05-24T06:43:48.612Z,16.80
2018-05-24T06:44:48.558Z,16.73
2018-05-24T06:45:48.507Z,16.88
2018-05-24T06:46:48.453Z,16.92
2018-05-24T06:47:48.407Z,16.92
2018-05-24T06:48:48.346Z,16.88
2018-05-24T06:49:48.293Z,16.95
2018-05-24T06:50:48.241Z,16.96
2018-05-24T06:51:48.185Z,16.96
2018-05-24T06:52:48.131Z,17.03
2018-05-24T06:53:48.175Z,17.00
2018-05-24T06:54:48.027Z,17.06
2018-05-24T06:55:47.972Z,17.10
2018-05-24T06:56:47.917Z,17.14
2018-05-24T06:57:47.863Z,17.11
2018-05-24T06:58:47.814Z,17.11
2018-05-24T06:59:47.823Z,16.98
2018-05-24T07:00:47.704Z,16.99
2018-05-24T07:01:47.651Z,16.95
2018-05-24T07:02:47.603Z,17.04
2018-05-24T07:03:47.544Z,17.03
2018-05-24T07:04:47.490Z,16.98
2018-05-24T07:05:47.513Z,17.00
2018-05-24T07:06:47.384Z,17.07
2018-05-24T07:07:47.329Z,17.15
2018-05-24T07:08:47.276Z,17.14
2018-05-24T07:09:47.225Z,17.18
2018-05-24T07:10:47.168Z,17.20
2018-05-24T07:11:47.122Z,17.23
2018-05-24T07:12:47.065Z,17.26
2018-05-24T07:13:47.009Z,17.25
2018-05-24T07:14:46.956Z,17.23
2018-05-24T07:15:46.904Z,17.25
2018-05-24T07:16:46.848Z,17.32
2018-05-24T07:17:46.800Z,17.30
2018-05-24T07:18:46.747Z,17.25
2018-05-24T07:19:46.695Z,17.20
2018-05-24T07:20:46.636Z,17.25
2018-05-24T07:21:46.583Z,17.32
2018-05-24T07:22:46.532Z,17.33
2018-05-24T07:23:46.476Z,17.41
2018-05-24T07:24:46.424Z,17.35
2018-05-24T07:25:46.371Z,17.47
2018-05-24T07:26:46.318Z,17.43
2018-05-24T07:27:46.265Z,17.47
2018-05-24T07:28:46.215Z,17.47
2018-05-24T07:29:46.158Z,17.53
2018-05-24T07:30:46.106Z,17.54
2018-05-24T07:31:46.053Z,17.64
2018-05-24T07:32:46.000Z,17.55
2018-05-24T07:33:45.947Z,17.74
2018-05-24T07:34:45.893Z,17.71
2018-05-24T07:35:45.839Z,17.64
2018-05-24T07:36:45.790Z,17.73
2018-05-24T07:37:45.785Z,17.74
2018-05-24T07:38:45.682Z,17.78
2018-05-24T07:39:45.646Z,17.91
2018-05-24T07:40:45.575Z,17.84
2018-05-24T07:41:45.523Z,17.91
2018-05-24T07:42:45.470Z,17.92
2018-05-24T07:43:45.417Z,17.95
2018-05-24T07:44:45.364Z,17.99
2018-05-24T07:45:45.311Z,18.00
2018-05-24T07:46:45.259Z,18.00
2018-05-24T07:47:45.205Z,18.12
2018-05-24T07:48:45.168Z,18.13
2018-05-24T07:49:45.100Z,18.22
2018-05-24T07:50:45.047Z,18.25
2018-05-24T07:51:44.997Z,18.27
2018-05-24T07:52:44.945Z,18.28
2018-05-24T07:53:44.890Z,18.24
2018-05-24T07:54:44.926Z,18.28
2018-05-24T07:55:44.785Z,18.24
2018-05-24T07:56:44.731Z,18.27
2018-05-24T07:57:44.680Z,18.22
2018-05-24T07:58:44.628Z,18.37
2018-05-24T07:59:44.578Z,18.42
2018-05-24T08:00:44.525Z,18.43
2018-05-24T08:01:44.569Z,18.64
2018-05-24T08:02:44.420Z,18.55
2018-05-24T08:03:44.367Z,18.62
2018-05-24T08:04:44.313Z,18.61
2018-05-24T08:05:44.260Z,18.73
2018-05-24T08:06:44.209Z,18.72
2018-05-24T08:07:44.158Z,18.79
2018-05-24T08:08:44.148Z,18.83
2018-05-24T08:09:44.051Z,18.95
2018-05-24T08:10:43.999Z,18.94
2018-05-24T08:11:43.948Z,19.01
2018-05-24T08:12:43.898Z,19.11
2018-05-24T08:13:43.841Z,19.02
2018-05-24T08:14:43.795Z,19.15
2018-05-24T08:15:43.741Z,19.10
2018-05-24T08:16:43.687Z,19.23
2018-05-24T08:17:43.634Z,19.13
2018-05-24T08:18:43.585Z,19.17
2018-05-24T08:19:43.536Z,19.28
2018-05-24T08:20:43.483Z,19.28
2018-05-24T08:21:43.427Z,19.28
2018-05-24T08:22:43.375Z,19.21
2018-05-24T08:23:43.326Z,19.15
2018-05-24T08:24:43.273Z,19.18
2018-05-24T08:25:43.219Z,19.05
2018-05-24T08:26:43.168Z,19.06
2018-05-24T08:27:43.116Z,19.01
2018-05-24T08:28:43.063Z,19.11
2018-05-24T08:29:43.011Z,19.23
2018-05-24T08:30:42.960Z,19.25
2018-05-24T08:31:42.908Z,19.25
2018-05-24T08:32:42.857Z,19.21
2018-05-24T08:33:42.806Z,19.24
2018-05-24T08:34:42.753Z,19.33
2018-05-24T08:35:42.702Z,19.40
2018-05-24T08:36:42.650Z,19.47
2018-05-24T08:37:42.597Z,19.87
2018-05-24T08:38:42.545Z,20.02
2018-05-24T08:39:42.502Z,20.21
2018-05-24T08:40:42.466Z,20.13
2018-05-24T08:41:42.441Z,20.12
2018-05-24T08:42:42.341Z,20.23
2018-05-24T08:43:42.297Z,20.23
2018-05-24T08:44:42.236Z,20.21
2018-05-24T08:45:42.185Z,20.25
2018-05-24T08:46:42.134Z,20.39
2018-05-24T08:47:42.084Z,20.56
2018-05-24T08:48:42.035Z,20.64
2018-05-24T08:49:41.980Z,20.65
2018-05-24T08:50:41.929Z,20.62
2018-05-24T08:51:41.880Z,20.59
2018-05-24T08:52:41.825Z,20.42
2018-05-24T08:53:41.777Z,20.49
2018-05-24T08:54:41.726Z,20.56
2018-05-24T08:55:41.676Z,20.61
2018-05-24T08:56:41.622Z,20.77
2018-05-24T08:57:41.572Z,20.89
2018-05-24T08:58:41.519Z,20.98
2018-05-24T08:59:41.471Z,21.16
2018-05-24T09:00:41.418Z,21.38
2018-05-24T09:01:41.373Z,21.59
2018-05-24T09:02:41.370Z,21.53
2018-05-24T09:03:41.267Z,21.75
2018-05-24T09:04:41.216Z,21.56
2018-05-24T09:05:41.170Z,21.38
2018-05-24T09:06:41.114Z,21.23
2018-05-24T09:07:41.065Z,21.27
2018-05-24T09:08:41.014Z,21.21
2018-05-24T09:09:40.963Z,21.13
2018-05-24T09:10:40.914Z,21.20
2018-05-24T09:11:40.867Z,21.21
2018-05-24T09:12:40.812Z,21.06
2018-05-24T09:13:40.763Z,21.08
2018-05-24T09:14:40.711Z,21.05
2018-05-24T09:15:40.662Z,21.11
2018-05-24T09:16:40.614Z,21.21
2018-05-24T09:17:40.630Z,21.41
2018-05-24T09:18:40.511Z,21.42
2018-05-24T09:19:40.464Z,21.39
2018-05-24T09:20:40.409Z,21.51
2018-05-24T09:21:40.359Z,21.71
2018-05-24T09:22:40.309Z,21.76
2018-05-24T09:23:40.259Z,21.75
2018-05-24T09:24:40.208Z,21.51
2018-05-24T09:25:40.159Z,21.23
2018-05-24T09:26:40.108Z,21.13
2018-05-24T09:27:40.062Z,21.06
2018-05-24T09:28:40.009Z,21.11
2018-05-24T09:29:39.964Z,21.09
2018-05-24T09:30:39.911Z,21.09
2018-05-24T09:31:39.858Z,21.06
2018-05-24T09:32:39.807Z,21.11
2018-05-24T09:33:39.758Z,21.08
2018-05-24T09:34:39.709Z,21.13
2018-05-24T09:35:39.657Z,21.17
2018-05-24T09:36:39.636Z,21.23
2018-05-24T09:37:39.558Z,21.36
2018-05-24T09:38:39.513Z,21.32
2018-05-24T09:39:39.458Z,21.30
2018-05-24T09:40:39.407Z,21.24
2018-05-24T09:41:39.357Z,21.30
2018-05-24T09:42:39.309Z,21.27
2018-05-24T09:43:39.258Z,21.21
2018-05-24T09:44:39.208Z,21.30
2018-05-24T09:45:39.157Z,21.41
2018-05-24T09:46:39.108Z,21.45
2018-05-24T09:47:39.057Z,21.45
2018-05-24T09:48:39.008Z,21.56
2018-05-24T09:49:38.961Z,21.60
2018-05-24T09:50:38.907Z,21.71
2018-05-24T09:51:38.859Z,21.67
2018-05-24T09:52:38.807Z,21.64
2018-05-24T09:53:38.760Z,21.61
2018-05-24T09:54:38.708Z,21.67
2018-05-24T09:55:38.733Z,21.66
2018-05-24T09:56:38.607Z,21.76
2018-05-24T09:57:38.557Z,21.74
2018-05-24T09:58:38.510Z,21.75
2018-05-24T09:59:38.459Z,21.82
2018-05-24T10:00:38.408Z,21.90
2018-05-24T10:01:38.359Z,22.02
2018-05-24T10:02:38.309Z,22.06
2018-05-24T10:03:38.260Z,22.13
2018-05-24T10:04:38.257Z,22.23
2018-05-24T10:05:38.160Z,22.16
2018-05-24T10:06:38.111Z,22.19
2018-05-24T10:07:38.061Z,22.28
2018-05-24T10:08:38.012Z,22.27
2018-05-24T10:09:37.963Z,22.28
2018-05-24T10:10:37.955Z,22.29
2018-05-24T10:11:37.863Z,22.23
2018-05-24T10:12:37.820Z,22.22
2018-05-24T10:13:37.769Z,22.31
2018-05-24T10:14:37.716Z,22.41
2018-05-24T10:15:37.667Z,22.47
2018-05-24T10:16:37.692Z,22.49
2018-05-24T10:17:37.567Z,22.56
2018-05-24T10:18:37.518Z,22.75
2018-05-24T10:19:37.470Z,22.74
2018-05-24T10:20:37.419Z,22.71
2018-05-24T10:21:37.369Z,22.67
2018-05-24T10:22:37.322Z,22.52
2018-05-24T10:23:37.313Z,22.46
2018-05-24T10:24:37.224Z,22.52
2018-05-24T10:25:37.174Z,22.57
2018-05-24T10:26:37.125Z,22.71
2018-05-24T10:27:37.076Z,22.72
2018-05-24T10:28:37.028Z,22.75
2018-05-24T10:29:36.979Z,22.74
2018-05-24T10:30:36.931Z,22.75
2018-05-24T10:31:36.882Z,22.68
2018-05-24T10:32:36.832Z,22.68
2018-05-24T10:33:36.784Z,22.65
2018-05-24T10:34:36.736Z,22.62
2018-05-24T10:35:36.688Z,22.74
2018-05-24T10:36:36.638Z,22.83
2018-05-24T10:37:36.589Z,22.87
2018-05-24T10:38:36.541Z,22.84
2018-05-24T10:39:36.510Z,22.89
2018-05-24T10:40:36.442Z,22.90
2018-05-24T10:41:36.394Z,22.82
2018-05-24T10:42:36.345Z,22.62
2018-05-24T10:43:36.298Z,22.56
2018-05-24T10:44:36.247Z,22.57
2018-05-24T10:45:36.199Z,22.41
2018-05-24T10:46:36.151Z,22.37
2018-05-24T10:47:36.102Z,22.37
2018-05-24T10:48:36.054Z,22.37
2018-05-24T10:49:36.008Z,22.44
2018-05-24T10:50:35.960Z,22.43
2018-05-24T10:51:35.906Z,22.47
2018-05-24T10:52:35.860Z,22.38
2018-05-24T10:53:35.808Z,22.29
2018-05-24T10:54:35.759Z,22.32
2018-05-24T10:55:35.710Z,22.17
2018-05-24T10:56:35.666Z,22.16
2018-05-24T10:57:35.615Z,22.28
2018-05-24T10:58:35.563Z,22.39
2018-05-24T10:59:35.559Z,22.44
2018-05-24T11:00:35.465Z,22.62
2018-05-24T11:01:35.414Z,22.60
2018-05-24T11:02:35.389Z,22.64
2018-05-24T11:03:35.317Z,22.74
2018-05-24T11:04:35.265Z,22.64
2018-05-24T11:05:35.219Z,22.89
2018-05-24T11:06:35.172Z,22.93
2018-05-24T11:07:35.120Z,23.04
2018-05-24T11:08:35.070Z,23.15
2018-05-24T11:09:35.022Z,23.19
2018-05-24T11:10:34.980Z,23.26
2018-05-24T11:11:34.979Z,23.29
2018-05-24T11:12:34.876Z,23.20
2018-05-24T11:13:34.827Z,23.32
2018-05-24T11:14:34.779Z,23.35
2018-05-24T11:15:34.732Z,23.38
2018-05-24T11:16:34.680Z,23.58
2018-05-24T11:17:34.633Z,23.62
2018-05-24T11:18:34.584Z,23.55
2018-05-24T11:19:34.536Z,23.43
2018-05-24T11:20:34.489Z,23.39
2018-05-24T11:21:34.440Z,23.45
2018-05-24T11:22:34.391Z,23.31
2018-05-24T11:23:34.393Z,23.26
2018-05-24T11:24:34.294Z,23.07
2018-05-24T11:25:34.246Z,23.17
2018-05-24T11:26:34.197Z,23.15
2018-05-24T11:27:34.151Z,23.26
2018-05-24T11:28:34.099Z,23.31
2018-05-24T11:29:34.052Z,23.42
2018-05-24T11:30:34.004Z,23.47
2018-05-24T11:31:33.955Z,23.57
2018-05-24T11:32:33.907Z,23.50
2018-05-24T11:33:33.862Z,23.61
2018-05-24T11:34:33.813Z,23.62
2018-05-24T11:35:33.765Z,23.61
2018-05-24T11:36:33.714Z,23.38
2018-05-24T11:37:33.666Z,23.23
2018-05-24T11:38:33.621Z,23.35
2018-05-24T11:39:33.574Z,23.46
2018-05-24T11:40:33.584Z,23.55
2018-05-24T11:41:33.474Z,23.55
2018-05-24T11:42:33.425Z,23.57
2018-05-24T11:43:33.377Z,23.58
2018-05-24T11:44:33.330Z,23.60
2018-05-24T11:45:33.284Z,23.52
2018-05-24T11:46:33.235Z,23.53
2018-05-24T11:47:33.187Z,23.57
2018-05-24T11:48:33.137Z,23.50
2018-05-24T11:49:33.088Z,23.43
2018-05-24T11:50:33.041Z,23.26
2018-05-24T11:51:32.992Z,23.24
2018-05-24T11:52:32.944Z,23.20
2018-05-24T11:53:32.901Z,23.19
2018-05-24T11:54:32.849Z,23.19
2018-05-24T11:55:32.801Z,23.14
2018-05-24T11:56:32.758Z,23.15
2018-05-24T11:57:32.704Z,23.15
2018-05-24T11:58:32.656Z,23.19
2018-05-24T11:59:32.610Z,23.19
2018-05-24T12:00:32.565Z,23.17
2018-05-24T12:01:32.509Z,23.20
2018-05-24T12:02:32.467Z,23.20
2018-05-24T12:03:32.415Z,23.19
2018-05-24T12:04:32.366Z,23.04
2018-05-24T12:05:32.319Z,22.92
2018-05-24T12:06:32.271Z,22.93
2018-05-24T12:07:32.220Z,22.94
2018-05-24T12:08:32.172Z,22.90
2018-05-24T12:09:32.127Z,22.93
2018-05-24T12:10:32.076Z,22.96
2018-05-24T12:11:32.026Z,23.02
2018-05-24T12:12:31.978Z,22.92
2018-05-24T12:13:31.929Z,22.96
2018-05-24T12:14:31.885Z,22.93
2018-05-24T12:15:31.832Z,22.92
2018-05-24T12:16:31.784Z,22.93
2018-05-24T12:17:31.738Z,22.94
2018-05-24T12:18:31.689Z,22.90
2018-05-24T12:19:31.638Z,22.89
2018-05-24T12:20:31.589Z,22.90
2018-05-24T12:21:31.541Z,22.90
2018-05-24T12:22:31.493Z,22.89
2018-05-24T12:23:31.443Z,22.93
2018-05-24T12:24:31.394Z,22.89
2018-05-24T12:25:31.346Z,22.83
2018-05-24T12:26:31.298Z,22.84
2018-05-24T12:27:31.248Z,22.78
2018-05-24T12:28:31.199Z,22.84
2018-05-24T12:29:31.152Z,22.92
2018-05-24T12:30:31.103Z,22.92
2018-05-24T12:31:31.053Z,22.87
2018-05-24T12:32:31.005Z,22.94
2018-05-24T12:33:30.959Z,22.97
2018-05-24T12:34:30.915Z,23.07
2018-05-24T12:35:30.894Z,22.92
2018-05-24T12:36:30.809Z,22.90
2018-05-24T12:37:30.762Z,22.93
2018-05-24T12:38:30.714Z,22.93
2018-05-24T12:39:30.664Z,22.94
2018-05-24T12:40:30.625Z,23.01
2018-05-24T12:41:30.595Z,23.04
2018-05-24T12:42:30.518Z,23.04
2018-05-24T12:43:30.469Z,23.04
2018-05-24T12:44:30.421Z,23.04
2018-05-24T12:45:30.372Z,23.09
2018-05-24T12:46:30.325Z,23.04
2018-05-24T12:47:30.275Z,23.08
2018-05-24T12:48:30.224Z,23.02
2018-05-24T12:49:30.183Z,23.07
2018-05-24T12:50:30.128Z,23.05
2018-05-24T12:51:30.083Z,22.99